Why, Arizona
Current Conditions -  °F | °C
As of 9:55 PM on Thursday 20 Nov 2014 (Local Time) from KGXF Reporting Station
Few Clouds Few Clouds  
Wind Chill: 14°   Ceiling: Unl
Heat Index: 14°   Visibility: 10mi
Dew Point: -8°   Wind: 6mph
Humidity: 21%   Direction: 170°S
Pressure: 29.96"   Gusts: NA
Location:  32.5298°N, 112.879°W
Report Text: KGXF 210455Z 17005KT 10SM FEW250 14/M08 A2996 RMK SLP146
Loading
Personal Weather Stations






























Interactive Weather Map New forecast layout! Learn more

10-Day Weather Forecast

Advertisements
Track Severe Weather on mobile